Time;durP1;ratioP1;P1;durP2;ratioP2;P2;SDS_P1;SDS_P2;PMS_P1;PMS_P2;Temp;Humidity;BMP_temperature;BMP_pressure;BME280_temperature;BME280_humidity;BME280_pressure;Samples;Min_cycle;Max_cycle;Signal;HPM_P1;HPM_P2
2022/06/20 00:01:19;;;;;;;6.55;1.65;;;;;;;;;;4940763;29;20695;-74
2022/06/20 00:03:48;;;;;;;7.70;1.58;;;;;;;;;;4941500;28;20063;-74
2022/06/20 00:06:16;;;;;;;9.70;1.55;;;;;;;;;;4942158;29;20043;-74
2022/06/20 00:08:44;;;;;;;6.40;1.25;;;;;;;;;;4939881;29;20051;-74
2022/06/20 00:11:15;;;;;;;7.88;1.50;;;;;;;;;;4943436;28;20051;-74
2022/06/20 00:13:42;;;;;;;5.80;1.60;;;;;;;;;;4940717;29;20578;-74
2022/06/20 00:16:13;;;;;;;4.68;1.30;;;;;;;;;;4942337;28;20051;-74
2022/06/20 00:18:40;;;;;;;6.18;1.40;;;;;;;;;;4943300;28;20059;-74
2022/06/20 00:21:08;;;;;;;6.88;1.83;;;;;;;;;;4939924;28;20455;-74
2022/06/20 00:23:35;;;;;;;7.90;1.58;;;;;;;;;;4944416;28;20062;-74
2022/06/20 00:26:02;;;;;;;5.90;1.40;;;;;;;;;;4945780;29;20051;-74
2022/06/20 00:28:31;;;;;;;8.23;1.65;;;;;;;;;;4942858;29;20099;-74
2022/06/20 00:31:00;;;;;;;7.35;1.60;;;;;;;;;;4941207;28;20059;-74
2022/06/20 00:33:27;;;;;;;8.95;1.60;;;;;;;;;;4945365;28;20118;-74
2022/06/20 00:35:54;;;;;;;7.28;1.48;;;;;;;;;;4942939;29;20043;-74
2022/06/20 00:38:22;;;;;;;6.68;1.45;;;;;;;;;;4937117;29;20051;-74
2022/06/20 00:40:50;;;;;;;7.30;1.65;;;;;;;;;;4939317;29;20055;-74
2022/06/20 00:43:21;;;;;;;5.85;1.30;;;;;;;;;;4945679;29;20271;-74
2022/06/20 00:45:51;;;;;;;4.45;1.17;;;;;;;;;;4940539;28;20047;-74
2022/06/20 00:48:21;;;;;;;5.95;1.52;;;;;;;;;;4939784;28;20063;-75
2022/06/20 00:50:50;;;;;;;7.38;1.25;;;;;;;;;;4937533;29;20103;-74
2022/06/20 00:53:20;;;;;;;10.90;1.83;;;;;;;;;;4940794;29;20051;-74
2022/06/20 00:55:49;;;;;;;7.20;1.55;;;;;;;;;;4936873;29;20621;-74
2022/06/20 00:58:26;;;;;;;7.97;1.50;;;;;;;;;;4942933;29;20051;-74
2022/06/20 01:00:55;;;;;;;10.65;1.70;;;;;;;;;;4939853;28;20052;-71
2022/06/20 01:03:25;;;;;;;8.20;1.67;;;;;;;;;;4940844;28;20687;-71
2022/06/20 01:05:55;;;;;;;7.07;1.60;;;;;;;;;;4941310;29;20498;-71
2022/06/20 01:08:24;;;;;;;10.10;1.88;;;;;;;;;;4943850;29;20118;-71
2022/06/20 01:10:52;;;;;;;8.60;1.70;;;;;;;;;;4941178;28;20055;-71
2022/06/20 01:13:22;;;;;;;10.88;1.75;;;;;;;;;;4941037;28;20051;-71
2022/06/20 01:15:50;;;;;;;9.85;1.80;;;;;;;;;;4941143;29;20051;-71
2022/06/20 01:18:20;;;;;;;8.70;1.77;;;;;;;;;;4945498;28;20095;-71
2022/06/20 01:20:49;;;;;;;10.80;1.90;;;;;;;;;;4940431;29;20794;-71
2022/06/20 01:23:29;;;;;;;9.95;1.83;;;;;;;;;;4943249;28;20047;-71
2022/06/20 01:26:02;;;;;;;10.07;2.30;;;;;;;;;;4942147;28;20114;-71
2022/06/20 01:28:34;;;;;;;7.78;1.98;;;;;;;;;;4927040;29;20048;-71
2022/06/20 01:31:01;;;;;;;6.22;1.58;;;;;;;;;;4924236;29;20111;-71
2022/06/20 01:33:28;;;;;;;7.38;1.73;;;;;;;;;;4923207;29;20063;-71
2022/06/20 01:38:42;;;;;;;8.25;1.90;;;;;;;;;;4923707;29;20248;-71
2022/06/20 01:44:10;;;;;;;13.25;1.98;;;;;;;;;;4888958;29;20063;-71
2022/06/20 01:46:38;;;;;;;11.27;2.85;;;;;;;;;;4890884;29;20060;-71
2022/06/20 01:49:07;;;;;;;12.35;2.10;;;;;;;;;;4911291;28;20051;-71
2022/06/20 01:51:36;;;;;;;10.35;1.92;;;;;;;;;;4929035;29;20063;-71
2022/06/20 01:54:03;;;;;;;13.45;2.50;;;;;;;;;;4939243;28;20059;-71
2022/06/20 01:56:30;;;;;;;12.95;2.20;;;;;;;;;;4926556;29;20838;-71
2022/06/20 01:59:00;;;;;;;10.93;2.00;;;;;;;;;;4926359;29;20135;-71
2022/06/20 02:01:31;;;;;;;7.28;2.00;;;;;;;;;;4928084;29;20148;-71
2022/06/20 02:03:58;;;;;;;9.20;2.20;;;;;;;;;;4930328;29;20090;-71
2022/06/20 02:06:26;;;;;;;9.73;2.65;;;;;;;;;;4926801;28;20629;-71
2022/06/20 02:08:54;;;;;;;10.40;2.20;;;;;;;;;;4946651;28;20067;-71
2022/06/20 02:11:23;;;;;;;12.45;2.70;;;;;;;;;;4925989;29;20051;-71
2022/06/20 02:13:52;;;;;;;13.63;2.72;;;;;;;;;;4926765;29;20149;-71
2022/06/20 02:16:21;;;;;;;13.55;2.55;;;;;;;;;;4931641;28;20059;-71
2022/06/20 02:18:51;;;;;;;7.80;1.90;;;;;;;;;;4930099;29;20146;-71
2022/06/20 02:21:20;;;;;;;12.18;2.22;;;;;;;;;;4927127;29;20058;-71
2022/06/20 02:23:50;;;;;;;9.98;2.50;;;;;;;;;;4929973;29;20051;-71
2022/06/20 02:26:17;;;;;;;10.75;2.47;;;;;;;;;;4944895;29;20050;-71
2022/06/20 02:28:47;;;;;;;14.40;2.40;;;;;;;;;;4928090;29;20077;-71
2022/06/20 02:31:17;;;;;;;10.80;2.53;;;;;;;;;;4943090;29;20122;-71
2022/06/20 02:33:44;;;;;;;14.27;3.00;;;;;;;;;;4926708;29;20055;-71
2022/06/20 02:36:12;;;;;;;12.68;2.60;;;;;;;;;;4929171;29;20108;-72
2022/06/20 02:38:40;;;;;;;14.48;2.60;;;;;;;;;;4928639;29;20059;-72
2022/06/20 02:41:07;;;;;;;14.45;2.50;;;;;;;;;;4928339;29;20051;-72
2022/06/20 02:43:38;;;;;;;14.02;2.42;;;;;;;;;;4923362;29;20055;-71
2022/06/20 02:46:09;;;;;;;20.52;3.25;;;;;;;;;;4935921;29;20051;-71
2022/06/20 02:48:38;;;;;;;12.07;2.55;;;;;;;;;;4928189;29;20052;-71
2022/06/20 02:51:07;;;;;;;12.90;2.65;;;;;;;;;;4928787;29;20384;-71
2022/06/20 02:53:38;;;;;;;12.20;2.20;;;;;;;;;;4930890;28;20094;-71
2022/06/20 02:56:06;;;;;;;15.07;2.78;;;;;;;;;;4939787;29;20105;-71
2022/06/20 02:58:35;;;;;;;10.10;2.15;;;;;;;;;;4927777;29;20174;-71
2022/06/20 03:01:04;;;;;;;12.82;2.47;;;;;;;;;;4926978;29;20064;-71
2022/06/20 03:03:33;;;;;;;10.32;2.45;;;;;;;;;;4928390;29;20051;-71
2022/06/20 03:06:01;;;;;;;9.52;2.45;;;;;;;;;;4924873;29;20067;-71
2022/06/20 03:08:28;;;;;;;10.77;2.63;;;;;;;;;;4926431;29;20054;-71
2022/06/20 03:11:01;;;;;;;11.05;2.90;;;;;;;;;;4926557;29;20478;-71
2022/06/20 03:13:28;;;;;;;8.80;2.88;;;;;;;;;;4928860;29;20118;-71
2022/06/20 03:15:55;;;;;;;12.02;2.30;;;;;;;;;;4928216;29;20106;-71
2022/06/20 03:18:23;;;;;;;13.93;2.72;;;;;;;;;;4920015;29;20470;-71
2022/06/20 03:20:51;;;;;;;12.52;2.80;;;;;;;;;;4931977;28;20515;-71
2022/06/20 03:23:21;;;;;;;10.07;2.95;;;;;;;;;;4925503;29;20056;-71
2022/06/20 03:25:49;;;;;;;9.07;2.53;;;;;;;;;;4926697;29;20471;-71
2022/06/20 03:28:18;;;;;;;11.05;2.97;;;;;;;;;;4924451;29;20493;-71
2022/06/20 03:30:46;;;;;;;10.68;3.20;;;;;;;;;;4928099;29;20506;-71
2022/06/20 03:33:14;;;;;;;12.95;2.90;;;;;;;;;;4925028;29;20043;-71
2022/06/20 03:35:43;;;;;;;13.63;3.05;;;;;;;;;;4927794;29;20060;-71
2022/06/20 03:38:10;;;;;;;7.90;3.00;;;;;;;;;;4927072;29;20039;-71
2022/06/20 03:40:39;;;;;;;13.00;3.50;;;;;;;;;;4923212;29;20118;-71
2022/06/20 03:43:07;;;;;;;15.65;3.45;;;;;;;;;;4926582;29;20060;-71
2022/06/20 03:45:38;;;;;;;13.55;3.17;;;;;;;;;;4927254;29;20098;-71
2022/06/20 03:48:09;;;;;;;9.02;3.05;;;;;;;;;;4929877;29;20463;-71
2022/06/20 03:50:38;;;;;;;12.80;3.00;;;;;;;;;;4927034;29;20062;-71
2022/06/20 03:53:08;;;;;;;14.75;3.53;;;;;;;;;;4923937;29;20048;-71
2022/06/20 03:55:38;;;;;;;10.38;3.47;;;;;;;;;;4946035;28;20051;-71
2022/06/20 03:58:08;;;;;;;12.63;3.33;;;;;;;;;;4924296;29;20039;-71
2022/06/20 04:00:40;;;;;;;12.38;3.45;;;;;;;;;;4927887;29;20052;-71
2022/06/20 04:03:10;;;;;;;10.85;3.42;;;;;;;;;;4923807;29;20058;-71
2022/06/20 04:05:40;;;;;;;11.27;3.08;;;;;;;;;;4923848;29;20110;-71
2022/06/20 04:08:08;;;;;;;13.23;3.72;;;;;;;;;;4926561;29;20058;-71
2022/06/20 04:13:35;;;;;;;12.75;3.47;;;;;;;;;;4883815;29;20111;-71
2022/06/20 04:16:06;;;;;;;15.45;3.53;;;;;;;;;;4924723;29;20134;-71
2022/06/20 04:18:36;;;;;;;12.00;3.40;;;;;;;;;;4924013;29;20495;-71
2022/06/20 04:21:15;;;;;;;12.57;3.50;;;;;;;;;;4947717;28;20050;-71
2022/06/20 04:23:44;;;;;;;10.93;3.47;;;;;;;;;;4932384;29;20055;-71
2022/06/20 04:26:14;;;;;;;11.32;3.15;;;;;;;;;;4933360;29;20055;-71
2022/06/20 04:28:43;;;;;;;15.05;3.78;;;;;;;;;;4930852;29;20066;-71
2022/06/20 04:31:14;;;;;;;11.95;3.40;;;;;;;;;;4928352;29;20055;-71
2022/06/20 04:33:43;;;;;;;14.02;3.78;;;;;;;;;;4942004;28;20048;-71
2022/06/20 04:36:17;;;;;;;11.73;3.25;;;;;;;;;;4925655;29;20102;-71
2022/06/20 04:38:46;;;;;;;11.63;3.35;;;;;;;;;;4942362;29;20197;-71
2022/06/20 04:41:15;;;;;;;10.85;3.20;;;;;;;;;;4941922;28;20604;-71
2022/06/20 04:43:44;;;;;;;12.57;4.03;;;;;;;;;;4941110;28;20060;-71
2022/06/20 04:46:16;;;;;;;13.60;3.55;;;;;;;;;;4941929;28;20067;-71
2022/06/20 04:48:45;;;;;;;16.70;4.10;;;;;;;;;;4940605;28;20055;-71
2022/06/20 04:51:16;;;;;;;14.05;3.85;;;;;;;;;;4937149;29;20066;-71
2022/06/20 04:53:46;;;;;;;12.32;3.08;;;;;;;;;;4940520;28;20138;-71
2022/06/20 04:56:15;;;;;;;14.45;3.30;;;;;;;;;;4941003;28;20119;-71
2022/06/20 04:58:45;;;;;;;13.45;3.53;;;;;;;;;;4939597;28;20110;-71
2022/06/20 05:01:13;;;;;;;13.50;3.10;;;;;;;;;;4941498;28;20154;-71
2022/06/20 05:03:42;;;;;;;10.90;3.13;;;;;;;;;;4945180;28;20549;-71
2022/06/20 05:06:15;;;;;;;14.43;2.83;;;;;;;;;;4947919;28;20653;-71
2022/06/20 05:08:47;;;;;;;14.25;4.10;;;;;;;;;;4946638;28;20518;-71
2022/06/20 05:11:18;;;;;;;12.20;3.65;;;;;;;;;;4944980;28;20054;-71
2022/06/20 05:13:46;;;;;;;14.98;3.33;;;;;;;;;;4930416;28;20051;-71
2022/06/20 05:16:18;;;;;;;13.30;3.20;;;;;;;;;;4931735;28;20059;-71
2022/06/20 05:18:47;;;;;;;11.70;2.78;;;;;;;;;;4931398;28;20078;-71
2022/06/20 05:21:16;;;;;;;12.48;3.22;;;;;;;;;;4932329;28;20066;-71
2022/06/20 05:23:44;;;;;;;12.60;2.70;;;;;;;;;;4934546;28;20165;-71
2022/06/20 05:26:14;;;;;;;14.70;2.88;;;;;;;;;;4933029;28;20055;-71
2022/06/20 05:28:42;;;;;;;11.95;2.72;;;;;;;;;;4934124;28;20055;-71
2022/06/20 05:31:11;;;;;;;11.23;2.85;;;;;;;;;;4932220;29;20063;-71
2022/06/20 05:33:43;;;;;;;17.67;3.30;;;;;;;;;;4936431;28;20487;-71
2022/06/20 05:36:14;;;;;;;15.20;3.63;;;;;;;;;;4935178;29;20047;-71
2022/06/20 05:38:43;;;;;;;12.18;2.88;;;;;;;;;;4933317;28;20138;-71
2022/06/20 05:41:14;;;;;;;13.30;2.92;;;;;;;;;;4937472;29;20097;-71
2022/06/20 05:43:41;;;;;;;16.25;3.00;;;;;;;;;;4930046;29;20070;-71
2022/06/20 05:46:09;;;;;;;17.23;2.97;;;;;;;;;;4936039;29;20121;-71
2022/06/20 05:48:39;;;;;;;14.73;2.80;;;;;;;;;;4939615;28;20043;-71
2022/06/20 05:51:09;;;;;;;10.43;3.05;;;;;;;;;;4956154;28;20101;-71
2022/06/20 05:53:38;;;;;;;14.77;2.63;;;;;;;;;;4933443;29;20502;-71
2022/06/20 05:56:07;;;;;;;14.23;3.25;;;;;;;;;;4935555;29;20062;-71
2022/06/20 05:58:36;;;;;;;18.42;3.47;;;;;;;;;;4935360;28;20105;-71
2022/06/20 06:01:07;;;;;;;17.45;2.90;;;;;;;;;;4934485;29;20047;-71
2022/06/20 06:03:36;;;;;;;12.88;2.95;;;;;;;;;;4933853;29;20051;-71
2022/06/20 06:06:07;;;;;;;12.90;3.13;;;;;;;;;;4936875;29;20098;-71
2022/06/20 06:08:40;;;;;;;14.98;3.03;;;;;;;;;;4931063;28;20051;-71
2022/06/20 06:11:11;;;;;;;13.90;3.17;;;;;;;;;;4932351;29;20063;-71
2022/06/20 06:13:42;;;;;;;11.98;2.88;;;;;;;;;;4935264;28;20114;-71
2022/06/20 06:19:02;;;;;;;9.98;2.80;;;;;;;;;;4934214;28;20070;-71
2022/06/20 06:21:29;;;;;;;13.23;3.25;;;;;;;;;;4935176;28;20047;-71
2022/06/20 06:23:59;;;;;;;10.73;2.60;;;;;;;;;;4935235;28;20078;-71
2022/06/20 06:26:26;;;;;;;11.35;2.45;;;;;;;;;;4937243;28;20046;-71
2022/06/20 06:28:54;;;;;;;8.00;2.30;;;;;;;;;;4935163;28;20051;-71
2022/06/20 06:31:24;;;;;;;13.45;2.97;;;;;;;;;;4934146;29;20058;-71
2022/06/20 06:33:52;;;;;;;14.60;2.97;;;;;;;;;;4931324;28;20056;-71
2022/06/20 06:36:23;;;;;;;15.30;2.67;;;;;;;;;;4935026;28;20050;-71
2022/06/20 06:38:52;;;;;;;11.25;2.45;;;;;;;;;;4935981;29;20087;-71
2022/06/20 06:41:24;;;;;;;5.93;1.70;;;;;;;;;;4937609;28;20098;-71
2022/06/20 06:43:51;;;;;;;7.05;1.80;;;;;;;;;;4931318;29;20055;-71
2022/06/20 06:46:22;;;;;;;6.63;1.48;;;;;;;;;;4933669;28;20067;-71
2022/06/20 06:48:52;;;;;;;6.47;1.67;;;;;;;;;;4933248;29;20062;-71
2022/06/20 06:51:21;;;;;;;11.05;2.20;;;;;;;;;;4935318;28;20055;-71
2022/06/20 06:53:50;;;;;;;8.45;1.88;;;;;;;;;;4938337;29;20058;-71
2022/06/20 06:56:18;;;;;;;9.82;1.67;;;;;;;;;;4934776;29;20047;-71
2022/06/20 06:58:48;;;;;;;7.50;1.80;;;;;;;;;;4933541;29;20093;-71
2022/06/20 07:01:16;;;;;;;11.20;3.00;;;;;;;;;;4932517;29;20051;-71
2022/06/20 07:03:46;;;;;;;11.55;2.13;;;;;;;;;;4933355;29;20055;-71
2022/06/20 07:06:16;;;;;;;13.32;1.70;;;;;;;;;;4937970;28;20591;-71
2022/06/20 07:08:46;;;;;;;8.45;1.90;;;;;;;;;;4934225;29;20837;-71
2022/06/20 07:11:18;;;;;;;8.32;1.83;;;;;;;;;;4934829;29;20058;-71
2022/06/20 07:13:48;;;;;;;6.95;1.67;;;;;;;;;;4948789;29;20055;-71
2022/06/20 07:16:19;;;;;;;8.75;2.03;;;;;;;;;;4928513;29;20672;-71
2022/06/20 07:18:48;;;;;;;8.07;1.98;;;;;;;;;;4934683;28;20703;-71
2022/06/20 07:21:17;;;;;;;8.63;1.98;;;;;;;;;;4935944;29;20062;-71
2022/06/20 07:23:45;;;;;;;10.70;2.17;;;;;;;;;;4936909;29;20089;-71
2022/06/20 07:26:13;;;;;;;10.98;1.75;;;;;;;;;;4934813;29;20526;-71
2022/06/20 07:28:42;;;;;;;8.07;1.80;;;;;;;;;;4929235;29;20115;-71
2022/06/20 07:31:15;;;;;;;6.45;1.83;;;;;;;;;;4928305;29;20047;-71
2022/06/20 07:33:45;;;;;;;11.18;2.25;;;;;;;;;;4926068;29;20152;-71
2022/06/20 07:36:14;;;;;;;9.63;1.80;;;;;;;;;;4930833;29;20058;-71
2022/06/20 07:38:45;;;;;;;10.35;2.72;;;;;;;;;;4930157;29;20487;-71
2022/06/20 07:41:14;;;;;;;8.25;2.13;;;;;;;;;;4928355;29;20200;-71
2022/06/20 07:43:45;;;;;;;7.47;1.90;;;;;;;;;;4928213;29;20055;-71
2022/06/20 07:46:18;;;;;;;9.98;2.03;;;;;;;;;;4932096;29;20087;-71
2022/06/20 07:48:46;;;;;;;9.00;2.13;;;;;;;;;;4933977;29;20051;-71
2022/06/20 07:51:15;;;;;;;10.20;2.35;;;;;;;;;;4930927;28;20050;-71
2022/06/20 07:53:44;;;;;;;10.10;2.13;;;;;;;;;;4927198;29;20055;-71
2022/06/20 07:56:14;;;;;;;10.15;2.35;;;;;;;;;;4929383;29;20534;-71
2022/06/20 07:58:43;;;;;;;13.15;1.98;;;;;;;;;;4932511;29;20415;-71
2022/06/20 08:01:15;;;;;;;8.40;1.88;;;;;;;;;;4930930;28;20051;-71
2022/06/20 08:03:45;;;;;;;11.55;2.22;;;;;;;;;;4927576;28;20189;-71
2022/06/20 08:06:16;;;;;;;9.15;2.03;;;;;;;;;;4931994;29;20192;-71
2022/06/20 08:08:45;;;;;;;11.55;1.98;;;;;;;;;;4933150;29;20059;-71
2022/06/20 08:11:39;;;;;;;12.88;2.15;;;;;;;;;;4935045;29;20055;-71
2022/06/20 08:14:03;;;;;;;9.13;2.08;;;;;;;;;;4930517;29;20172;-71
2022/06/20 08:16:31;;;;;;;10.25;2.22;;;;;;;;;;4931853;29;20063;-71
2022/06/20 08:19:01;;;;;;;11.23;2.28;;;;;;;;;;4934211;29;20043;-71
2022/06/20 08:21:30;;;;;;;10.88;2.20;;;;;;;;;;4932372;29;20051;-71
2022/06/20 08:23:59;;;;;;;12.25;2.03;;;;;;;;;;4932599;29;20505;-71
2022/06/20 08:26:29;;;;;;;9.85;2.10;;;;;;;;;;4928735;28;20066;-71
2022/06/20 08:28:58;;;;;;;9.57;1.80;;;;;;;;;;4930832;28;20051;-71
2022/06/20 08:31:30;;;;;;;9.65;2.00;;;;;;;;;;4929661;28;20047;-71
2022/06/20 08:34:01;;;;;;;11.13;1.63;;;;;;;;;;4931297;29;20118;-71
2022/06/20 08:36:34;;;;;;;10.88;2.20;;;;;;;;;;4940548;28;20054;-71
2022/06/20 08:39:07;;;;;;;13.40;2.45;;;;;;;;;;4931293;29;20055;-71
2022/06/20 08:41:55;;;;;;;11.55;2.38;;;;;;;;;;4936128;28;20066;-71
2022/06/20 08:44:41;;;;;;;7.95;2.03;;;;;;;;;;4927156;29;20055;-71
2022/06/20 08:47:27;;;;;;;9.07;2.05;;;;;;;;;;4932109;29;20560;-71
2022/06/20 08:50:14;;;;;;;10.85;1.98;;;;;;;;;;4931652;29;20047;-71
2022/06/20 08:53:08;;;;;;;9.88;2.08;;;;;;;;;;4929410;28;20059;-71
2022/06/20 08:55:53;;;;;;;10.27;2.13;;;;;;;;;;4933561;28;20101;-71
2022/06/20 08:58:28;;;;;;;8.05;1.92;;;;;;;;;;4949734;28;20051;-71
2022/06/20 09:00:57;;;;;;;9.45;1.98;;;;;;;;;;4937074;28;20382;-71
2022/06/20 09:03:36;;;;;;;9.82;2.17;;;;;;;;;;4934809;29;20047;-71
2022/06/20 09:06:24;;;;;;;9.85;2.20;;;;;;;;;;4936532;29;20051;-71
2022/06/20 09:09:02;;;;;;;10.27;1.85;;;;;;;;;;4931338;28;20162;-72
2022/06/20 09:11:41;;;;;;;12.15;2.42;;;;;;;;;;4932478;29;20490;-71
2022/06/20 09:14:18;;;;;;;11.85;2.08;;;;;;;;;;4947675;29;20065;-71
2022/06/20 09:16:51;;;;;;;11.35;2.25;;;;;;;;;;4934103;28;20051;-71
2022/06/20 09:19:28;;;;;;;10.30;2.10;;;;;;;;;;4932867;28;20047;-71
2022/06/20 09:22:05;;;;;;;10.43;2.45;;;;;;;;;;4939159;29;20420;-71
2022/06/20 09:24:39;;;;;;;13.57;2.80;;;;;;;;;;4937228;29;20055;-71
2022/06/20 09:27:10;;;;;;;13.98;2.42;;;;;;;;;;4939470;28;20502;-71
2022/06/20 09:29:42;;;;;;;10.80;2.28;;;;;;;;;;4939261;29;20125;-71
2022/06/20 09:32:23;;;;;;;12.25;2.42;;;;;;;;;;4935501;28;20062;-71
2022/06/20 09:35:06;;;;;;;8.55;2.00;;;;;;;;;;4939928;29;20051;-71
2022/06/20 09:37:42;;;;;;;13.00;2.27;;;;;;;;;;4935887;29;20055;-71
2022/06/20 09:40:18;;;;;;;10.05;2.05;;;;;;;;;;4935614;28;20103;-71
2022/06/20 09:42:50;;;;;;;9.27;1.85;;;;;;;;;;4938010;29;20054;-71
2022/06/20 09:45:22;;;;;;;8.15;2.20;;;;;;;;;;4933715;29;20110;-71
2022/06/20 09:47:57;;;;;;;12.50;2.40;;;;;;;;;;4936128;29;20059;-71
2022/06/20 09:50:35;;;;;;;10.60;2.17;;;;;;;;;;4930040;29;20098;-71
2022/06/20 09:53:07;;;;;;;10.90;2.22;;;;;;;;;;4925575;29;20521;-72
2022/06/20 09:55:43;;;;;;;11.13;2.80;;;;;;;;;;4926717;29;20063;-72
2022/06/20 09:58:15;;;;;;;11.25;2.00;;;;;;;;;;4949582;29;20529;-72
2022/06/20 10:00:48;;;;;;;9.93;2.50;;;;;;;;;;4951281;28;20126;-72
2022/06/20 10:03:20;;;;;;;9.90;2.35;;;;;;;;;;4947355;28;20062;-72
2022/06/20 10:05:53;;;;;;;8.43;2.08;;;;;;;;;;4953522;28;20090;-72
2022/06/20 10:08:25;;;;;;;12.05;2.05;;;;;;;;;;4935359;29;20050;-72
2022/06/20 10:10:55;;;;;;;13.75;2.47;;;;;;;;;;4935728;29;20055;-72
2022/06/20 10:13:32;;;;;;;14.25;2.60;;;;;;;;;;4936293;29;20055;-72
2022/06/20 10:16:03;;;;;;;10.75;2.22;;;;;;;;;;4935299;28;20054;-72
2022/06/20 10:18:35;;;;;;;11.30;1.75;;;;;;;;;;4932630;29;20047;-72
2022/06/20 10:21:06;;;;;;;9.18;1.90;;;;;;;;;;4936406;29;20059;-72
2022/06/20 10:23:52;;;;;;;10.23;2.00;;;;;;;;;;4933152;29;20066;-72
2022/06/20 10:26:30;;;;;;;7.63;1.95;;;;;;;;;;4934822;29;20051;-72
2022/06/20 10:29:02;;;;;;;8.63;1.77;;;;;;;;;;4936339;28;20507;-72
2022/06/20 10:31:37;;;;;;;5.70;1.55;;;;;;;;;;4934258;29;20047;-72
2022/06/20 10:34:07;;;;;;;5.65;1.50;;;;;;;;;;4933677;29;20062;-72
2022/06/20 10:36:42;;;;;;;5.22;1.50;;;;;;;;;;4931700;29;20478;-72
2022/06/20 10:39:17;;;;;;;6.32;1.30;;;;;;;;;;4931348;29;20048;-72
2022/06/20 10:41:51;;;;;;;7.47;1.83;;;;;;;;;;4935499;29;20062;-72
2022/06/20 10:44:23;;;;;;;12.15;1.80;;;;;;;;;;4933771;29;20062;-72
2022/06/20 10:46:56;;;;;;;6.75;1.73;;;;;;;;;;4933819;28;20082;-72
2022/06/20 10:49:29;;;;;;;5.22;1.30;;;;;;;;;;4948928;29;20054;-72
2022/06/20 10:51:56;;;;;;;;;;;;;;;;;;4932987;29;20150;-72
2022/06/20 10:54:33;;;;;;;6.47;1.77;;;;;;;;;;4935261;29;19926;-72
2022/06/20 10:57:04;;;;;;;8.27;1.80;;;;;;;;;;4935078;29;20110;-72
2022/06/20 10:59:39;;;;;;;8.77;2.00;;;;;;;;;;4949775;28;20172;-72
2022/06/20 11:02:14;;;;;;;8.45;2.10;;;;;;;;;;4950645;29;20058;-72
2022/06/20 11:04:54;;;;;;;7.15;1.80;;;;;;;;;;4933725;29;20070;-72
2022/06/20 11:07:25;;;;;;;11.02;2.20;;;;;;;;;;4934366;29;20047;-72
2022/06/20 11:10:00;;;;;;;10.27;1.85;;;;;;;;;;4932189;29;20090;-72
2022/06/20 11:12:33;;;;;;;6.47;1.42;;;;;;;;;;4926824;29;20534;-72
2022/06/20 11:15:07;;;;;;;6.30;1.65;;;;;;;;;;4923194;28;20059;-72
2022/06/20 11:17:38;;;;;;;6.10;1.52;;;;;;;;;;4926151;29;20055;-72
2022/06/20 11:20:11;;;;;;;8.48;1.83;;;;;;;;;;4924003;29;20058;-72
2022/06/20 11:22:41;;;;;;;6.20;1.88;;;;;;;;;;4920859;29;20063;-72
2022/06/20 11:25:16;;;;;;;7.60;1.77;;;;;;;;;;4922068;29;20062;-72
2022/06/20 11:27:56;;;;;;;10.02;1.60;;;;;;;;;;4926020;29;20063;-72
2022/06/20 11:30:27;;;;;;;10.40;2.00;;;;;;;;;;4926762;29;20056;-72
2022/06/20 11:33:00;;;;;;;6.90;1.70;;;;;;;;;;4928302;29;20062;-72
2022/06/20 11:35:39;;;;;;;6.68;1.75;;;;;;;;;;4924783;29;20066;-72
2022/06/20 11:38:14;;;;;;;7.38;1.50;;;;;;;;;;4926626;29;20169;-72
2022/06/20 11:40:46;;;;;;;10.13;1.60;;;;;;;;;;4927117;29;20050;-72
2022/06/20 11:43:33;;;;;;;8.75;1.67;;;;;;;;;;4927724;29;20327;-72
2022/06/20 11:46:07;;;;;;;6.55;1.80;;;;;;;;;;4926459;29;20799;-72
2022/06/20 11:48:42;;;;;;;6.75;1.75;;;;;;;;;;4931718;29;20051;-72
2022/06/20 11:51:13;;;;;;;8.35;1.83;;;;;;;;;;4927209;29;20047;-72
2022/06/20 11:53:43;;;;;;;6.35;1.30;;;;;;;;;;4928497;29;20055;-72
2022/06/20 11:56:15;;;;;;;6.07;1.40;;;;;;;;;;4932905;28;20047;-72
2022/06/20 11:58:58;;;;;;;9.48;2.03;;;;;;;;;;4933757;29;20058;-72
2022/06/20 12:01:27;;;;;;;6.50;1.90;;;;;;;;;;4933020;29;20133;-72
2022/06/20 12:03:57;;;;;;;7.57;1.73;;;;;;;;;;4933362;28;20154;-72
2022/06/20 12:06:27;;;;;;;7.82;2.03;;;;;;;;;;4935148;29;20106;-72
2022/06/20 12:08:55;;;;;;;6.00;1.42;;;;;;;;;;4931832;29;20051;-72
2022/06/20 12:11:41;;;;;;;5.15;1.60;;;;;;;;;;4933828;29;20122;-72
2022/06/20 12:14:17;;;;;;;8.95;1.90;;;;;;;;;;4931831;29;20059;-72
2022/06/20 12:16:49;;;;;;;7.60;1.80;;;;;;;;;;4931285;28;20127;-72
2022/06/20 12:25:01;;;;;;;7.70;2.03;;;;;;;;;;4927240;29;20135;-72
2022/06/20 12:27:29;;;;;;;7.30;1.98;;;;;;;;;;4924173;29;20082;-72
2022/06/20 12:29:57;;;;;;;7.35;1.50;;;;;;;;;;4942212;29;20050;-72
2022/06/20 12:32:26;;;;;;;4.75;1.65;;;;;;;;;;4940488;29;20055;-72
2022/06/20 12:34:56;;;;;;;8.52;1.92;;;;;;;;;;4926372;29;20110;-72
2022/06/20 12:37:26;;;;;;;5.82;1.60;;;;;;;;;;4927088;29;20058;-72
2022/06/20 12:39:55;;;;;;;5.45;1.92;;;;;;;;;;4923775;29;20047;-72
2022/06/20 12:42:25;;;;;;;7.10;1.80;;;;;;;;;;4925700;28;20070;-72
2022/06/20 12:44:58;;;;;;;4.90;1.45;;;;;;;;;;4945047;29;20070;-72
2022/06/20 12:47:38;;;;;;;5.10;1.77;;;;;;;;;;4923643;29;20051;-72
2022/06/20 12:50:12;;;;;;;5.30;1.70;;;;;;;;;;4926107;29;20054;-72
2022/06/20 12:52:41;;;;;;;8.52;1.80;;;;;;;;;;4930714;29;20063;-72
2022/06/20 12:55:16;;;;;;;10.90;2.22;;;;;;;;;;4926600;29;20047;-72
2022/06/20 12:57:54;;;;;;;6.57;1.95;;;;;;;;;;4933716;28;20051;-72
2022/06/20 13:00:27;;;;;;;4.20;1.77;;;;;;;;;;4925496;29;20052;-72
2022/06/20 13:02:54;;;;;;;;;;;;;;;;;;4926567;29;20541;-72
2022/06/20 13:05:36;;;;;;;9.70;1.73;;;;;;;;;;4924585;28;19922;-72
2022/06/20 13:08:17;;;;;;;6.20;1.80;;;;;;;;;;4922580;29;20059;-72
2022/06/20 13:10:52;;;;;;;5.10;1.58;;;;;;;;;;4927159;29;20704;-72
2022/06/20 13:13:35;;;;;;;6.38;1.90;;;;;;;;;;4924566;29;20051;-72
2022/06/20 13:16:09;;;;;;;4.75;1.65;;;;;;;;;;4924801;29;20047;-72
2022/06/20 13:19:00;;;;;;;5.97;1.75;;;;;;;;;;4932931;29;20055;-72
2022/06/20 13:21:33;;;;;;;6.90;2.10;;;;;;;;;;4932658;28;20051;-72
2022/06/20 13:24:01;;;;;;;;;;;;;;;;;;4950666;28;20073;-72
2022/06/20 13:26:37;;;;;;;6.55;2.00;;;;;;;;;;4950691;28;20028;-72
2022/06/20 13:29:14;;;;;;;6.95;1.95;;;;;;;;;;4948095;28;20495;-72
2022/06/20 13:31:44;;;;;;;7.50;1.90;;;;;;;;;;4951919;28;20051;-72
2022/06/20 13:34:15;;;;;;;9.70;2.33;;;;;;;;;;4944964;28;20461;-72
2022/06/20 13:36:47;;;;;;;6.68;2.38;;;;;;;;;;4948142;28;20054;-72
2022/06/20 13:39:18;;;;;;;7.90;2.08;;;;;;;;;;4948560;28;20565;-72
2022/06/20 13:41:49;;;;;;;8.13;2.60;;;;;;;;;;4950071;28;20414;-72
2022/06/20 13:44:26;;;;;;;4.63;2.08;;;;;;;;;;4956205;28;20046;-72
2022/06/20 13:46:55;;;;;;;6.95;1.98;;;;;;;;;;4953875;28;20047;-72
2022/06/20 13:49:25;;;;;;;6.25;1.90;;;;;;;;;;4950751;28;20047;-72
2022/06/20 13:51:54;;;;;;;8.18;2.33;;;;;;;;;;4951043;28;20058;-72
2022/06/20 13:54:24;;;;;;;4.97;1.67;;;;;;;;;;4944317;28;20047;-72
2022/06/20 13:56:58;;;;;;;4.25;1.65;;;;;;;;;;4945578;28;20051;-72
2022/06/20 13:59:27;;;;;;;5.20;1.60;;;;;;;;;;4940302;28;20158;-72
2022/06/20 14:01:59;;;;;;;5.68;1.75;;;;;;;;;;4941575;28;20794;-72
2022/06/20 14:04:28;;;;;;;4.20;1.60;;;;;;;;;;4939810;28;20145;-72
2022/06/20 14:06:57;;;;;;;4.55;1.90;;;;;;;;;;4946326;28;20439;-72
2022/06/20 14:09:26;;;;;;;6.03;2.00;;;;;;;;;;4950637;28;20457;-73
2022/06/20 14:11:59;;;;;;;7.32;1.65;;;;;;;;;;4972134;28;20462;-71
2022/06/20 14:14:29;;;;;;;6.55;1.80;;;;;;;;;;4954185;28;20046;-71
2022/06/20 14:16:58;;;;;;;5.75;1.90;;;;;;;;;;4955251;28;20454;-71
2022/06/20 14:19:26;;;;;;;5.35;2.10;;;;;;;;;;4952486;28;20058;-71
2022/06/20 14:21:55;;;;;;;7.15;2.22;;;;;;;;;;4955664;28;20063;-71
2022/06/20 14:24:23;;;;;;;7.95;2.00;;;;;;;;;;4954003;28;20051;-71
2022/06/20 14:27:00;;;;;;;8.15;2.53;;;;;;;;;;4955322;28;20498;-70
2022/06/20 14:29:29;;;;;;;7.22;2.25;;;;;;;;;;4954564;28;20373;-70
2022/06/20 14:31:58;;;;;;;8.50;2.30;;;;;;;;;;4970673;28;20153;-70
2022/06/20 14:34:28;;;;;;;7.65;2.30;;;;;;;;;;4954675;28;20055;-70
2022/06/20 14:37:01;;;;;;;4.55;2.00;;;;;;;;;;4946872;28;20055;-70
2022/06/20 14:39:28;;;;;;;;;;;;;;;;;;4951192;28;20043;-70
2022/06/20 14:41:59;;;;;;;8.55;2.22;;;;;;;;;;4946846;28;19977;-70
2022/06/20 14:44:34;;;;;;;6.50;2.20;;;;;;;;;;4944152;28;20446;-70
2022/06/20 14:47:05;;;;;;;8.43;2.58;;;;;;;;;;4946719;28;20061;-70
2022/06/20 14:49:34;;;;;;;9.63;3.03;;;;;;;;;;4945351;28;20076;-70
2022/06/20 14:52:07;;;;;;;9.25;3.00;;;;;;;;;;4943161;28;20055;-70
2022/06/20 14:54:37;;;;;;;13.57;3.55;;;;;;;;;;4952430;28;20141;-70
2022/06/20 14:57:08;;;;;;;8.40;3.22;;;;;;;;;;4946202;28;20058;-70
2022/06/20 14:59:52;;;;;;;8.43;2.30;;;;;;;;;;4941052;28;20047;-70
2022/06/20 15:02:22;;;;;;;8.65;2.97;;;;;;;;;;4943852;28;20050;-71
2022/06/20 15:04:51;;;;;;;9.38;2.70;;;;;;;;;;4941784;28;20061;-71
2022/06/20 15:07:23;;;;;;;12.80;2.63;;;;;;;;;;4942991;28;20066;-71
2022/06/20 15:09:50;;;;;;;10.57;3.08;;;;;;;;;;4943772;28;20063;-71
2022/06/20 15:12:32;;;;;;;8.65;2.80;;;;;;;;;;4942922;28;20062;-71
2022/06/20 15:15:03;;;;;;;11.57;2.90;;;;;;;;;;4941881;28;20058;-70
2022/06/20 15:17:31;;;;;;;9.77;2.90;;;;;;;;;;4941522;28;20118;-70
2022/06/20 15:20:02;;;;;;;9.23;3.22;;;;;;;;;;4947853;28;20050;-70